createdAt,value
2019-03-13T00:00:40.190Z,5.1
2019-03-13T00:01:40.112Z,5.1
2019-03-13T00:02:40.200Z,5.1
2019-03-13T00:03:40.174Z,5.1
2019-03-13T00:04:40.268Z,5.1
2019-03-13T00:05:40.298Z,5.2
2019-03-13T00:06:40.359Z,5.2
2019-03-13T00:07:40.417Z,5.2
2019-03-13T00:08:40.480Z,5.2
2019-03-13T00:09:40.510Z,5.2
2019-03-13T00:10:40.560Z,5.3
2019-03-13T00:11:40.680Z,5.3
2019-03-13T00:12:40.689Z,5.3
2019-03-13T00:13:40.728Z,5.3
2019-03-13T00:14:40.788Z,5.3
2019-03-13T00:15:40.872Z,5.3
2019-03-13T00:16:40.898Z,5.3
2019-03-13T00:17:40.936Z,5.3
2019-03-13T00:18:40.997Z,5.3
2019-03-13T00:19:41.062Z,5.3
2019-03-13T00:20:41.082Z,5.3
2019-03-13T00:21:41.136Z,5.2
2019-03-13T00:22:41.210Z,5.1
2019-03-13T00:23:41.266Z,5
2019-03-13T00:24:41.337Z,5
2019-03-13T00:25:41.426Z,4.9
2019-03-13T00:26:41.410Z,4.8
2019-03-13T00:27:41.461Z,4.8
2019-03-13T00:28:41.485Z,4.8
2019-03-13T00:29:41.576Z,4.7
2019-03-13T00:30:41.595Z,4.7
2019-03-13T00:31:41.674Z,4.7
2019-03-13T00:32:41.714Z,4.7
2019-03-13T00:33:41.764Z,4.7
2019-03-13T00:34:41.814Z,4.7
2019-03-13T00:35:41.832Z,4.7
2019-03-13T00:36:41.906Z,4.6
2019-03-13T00:37:41.939Z,4.6
2019-03-13T00:38:42.014Z,4.6
2019-03-13T00:39:42.056Z,4.6
2019-03-13T00:40:42.185Z,4.6
2019-03-13T00:41:42.165Z,4.6
2019-03-13T00:42:42.243Z,4.6
2019-03-13T00:43:42.297Z,4.6
2019-03-13T00:44:42.327Z,4.6
2019-03-13T00:45:42.417Z,4.6
2019-03-13T00:46:42.462Z,4.6
2019-03-13T00:47:42.571Z,4.6
2019-03-13T00:48:42.743Z,4.6
2019-03-13T00:49:42.733Z,4.6
2019-03-13T00:50:42.733Z,4.5
2019-03-13T00:51:42.854Z,4.6
2019-03-13T00:52:42.859Z,4.5
2019-03-13T00:53:42.987Z,4.5
2019-03-13T00:54:43.011Z,4.6
2019-03-13T00:55:43.115Z,4.5
2019-03-13T00:56:43.151Z,4.6
2019-03-13T00:57:43.145Z,4.6
2019-03-13T00:58:43.304Z,4.6
2019-03-13T00:59:43.296Z,4.6
2019-03-13T01:00:43.326Z,4.6
2019-03-13T01:01:43.326Z,4.6
2019-03-13T01:02:43.508Z,4.6
2019-03-13T01:03:43.418Z,4.6
2019-03-13T01:04:43.431Z,4.6
2019-03-13T01:05:43.475Z,4.6
2019-03-13T01:06:43.541Z,4.6
2019-03-13T01:07:44.433Z,4.6
2019-03-13T01:08:43.682Z,4.5
2019-03-13T01:09:44.250Z,4.5
2019-03-13T01:10:43.783Z,4.5
2019-03-13T01:11:44.145Z,4.5
2019-03-13T01:12:44.266Z,4.4
2019-03-13T01:13:43.960Z,4.4
2019-03-13T01:14:44.012Z,4.4
2019-03-13T01:15:44.178Z,4.4
2019-03-13T01:16:44.179Z,4.4
2019-03-13T01:17:44.658Z,4.4
2019-03-13T01:18:44.215Z,4.4
2019-03-13T01:19:44.651Z,4.3
2019-03-13T01:20:44.311Z,4.3
2019-03-13T01:21:45.339Z,4.3
2019-03-13T01:22:45.327Z,4.3
2019-03-13T01:23:44.800Z,4.3
2019-03-13T01:24:44.497Z,4.3
2019-03-13T01:25:45.139Z,4.3
2019-03-13T01:26:44.590Z,4.3
2019-03-13T01:27:44.744Z,4.3
2019-03-13T01:28:44.697Z,4.3
2019-03-13T01:29:45.378Z,4.3
2019-03-13T01:30:44.814Z,4.3
2019-03-13T01:31:45.037Z,4.3
2019-03-13T01:32:45.637Z,4.3
2019-03-13T01:33:45.579Z,4.2
2019-03-13T01:34:45.369Z,4.2
2019-03-13T01:35:45.605Z,4.2
2019-03-13T01:36:45.141Z,4.2
2019-03-13T01:37:46.445Z,4.2
2019-03-13T01:38:45.769Z,4.2
2019-03-13T01:39:45.854Z,4.2
2019-03-13T01:40:46.011Z,4.2
2019-03-13T01:41:46.261Z,4.2
2019-03-13T01:42:47.122Z,4.2
2019-03-13T01:43:46.472Z,4.2
2019-03-13T01:44:47.207Z,4.2
2019-03-13T01:45:46.834Z,4.2
2019-03-13T01:46:46.789Z,4.2
2019-03-13T01:47:47.372Z,4.2
2019-03-13T01:48:47.155Z,4.1
2019-03-13T01:49:47.355Z,4.1
2019-03-13T01:50:47.600Z,4.1
2019-03-13T01:51:47.741Z,4.1
2019-03-13T01:52:47.521Z,4.1
2019-03-13T01:53:47.281Z,4.1
2019-03-13T01:54:47.275Z,4.1
2019-03-13T01:55:46.850Z,4.1
2019-03-13T01:56:48.878Z,4.1
2019-03-13T01:57:46.370Z,4.1
2019-03-13T01:58:49.276Z,4.1
2019-03-13T01:59:46.607Z,4.1
2019-03-13T02:00:49.764Z,4.1
2019-03-13T02:01:46.476Z,4.1
2019-03-13T02:02:47.377Z,4.1
2019-03-13T02:03:46.752Z,4.1
2019-03-13T02:04:47.438Z,4.1
2019-03-13T02:05:46.714Z,4.1
2019-03-13T02:06:46.789Z,4.1
2019-03-13T02:07:46.924Z,4.1
2019-03-13T02:08:47.057Z,4.1
2019-03-13T02:09:46.866Z,4.1
2019-03-13T02:10:46.891Z,4.1
2019-03-13T02:11:46.953Z,4.1
2019-03-13T02:12:47.003Z,4.1
2019-03-13T02:13:47.077Z,4.1
2019-03-13T02:14:47.156Z,4.1
2019-03-13T02:15:47.206Z,4.1
2019-03-13T02:16:47.241Z,4.1
2019-03-13T02:17:47.285Z,4.1
2019-03-13T02:18:47.346Z,4.1
2019-03-13T02:19:49.689Z,4.1
2019-03-13T02:20:47.461Z,4.1
2019-03-13T02:21:47.535Z,4.1
2019-03-13T02:22:47.587Z,4.1
2019-03-13T02:23:47.620Z,4.1
2019-03-13T02:24:47.666Z,4.1
2019-03-13T02:25:47.739Z,4.1
2019-03-13T02:26:47.786Z,4.1
2019-03-13T02:27:47.848Z,4.1
2019-03-13T02:28:56.407Z,4.1
2019-03-13T02:29:47.892Z,4.1
2019-03-13T02:30:47.965Z,4.1
2019-03-13T02:31:47.975Z,4.1
2019-03-13T02:32:48.329Z,4.1
2019-03-13T02:33:48.081Z,4.1
2019-03-13T02:34:48.128Z,4
2019-03-13T02:35:48.160Z,4.1
2019-03-13T02:36:48.320Z,4.1
2019-03-13T02:37:48.306Z,4
2019-03-13T02:38:48.297Z,4.1
2019-03-13T02:39:48.358Z,4.1
2019-03-13T02:40:48.417Z,4.1
2019-03-13T02:41:48.462Z,4.1
2019-03-13T02:42:48.890Z,4
2019-03-13T02:43:48.613Z,4
2019-03-13T02:44:48.658Z,4
2019-03-13T02:45:48.749Z,4
2019-03-13T02:46:48.743Z,4
2019-03-13T02:47:48.832Z,4
2019-03-13T02:48:48.864Z,4
2019-03-13T02:49:48.940Z,4
2019-03-13T02:50:48.960Z,4
2019-03-13T02:51:49.046Z,4
2019-03-13T02:52:49.101Z,4
2019-03-13T02:53:49.113Z,4
2019-03-13T02:54:49.150Z,4
2019-03-13T02:55:49.226Z,4
2019-03-13T02:56:49.254Z,4
2019-03-13T02:57:49.315Z,4
2019-03-13T02:59:05.755Z,4
2019-03-13T02:59:49.416Z,4
2019-03-13T03:00:49.483Z,4
2019-03-13T03:01:49.528Z,4
2019-03-13T03:02:49.581Z,4.1
2019-03-13T03:03:49.618Z,4.1
2019-03-13T03:04:49.663Z,4.1
2019-03-13T03:05:49.763Z,4.1
2019-03-13T03:06:49.780Z,4.1
2019-03-13T03:07:49.906Z,4.1
2019-03-13T03:08:49.896Z,4.1
2019-03-13T03:09:49.980Z,4.1
2019-03-13T03:10:50.015Z,4.1
2019-03-13T03:11:50.135Z,4.1
2019-03-13T03:12:50.115Z,4.1
2019-03-13T03:13:50.225Z,4.1
2019-03-13T03:14:50.254Z,4.1
2019-03-13T03:15:50.305Z,4.2
2019-03-13T03:16:50.405Z,4.2
2019-03-13T03:17:50.424Z,4.2
2019-03-13T03:18:50.481Z,4.2
2019-03-13T03:19:50.515Z,4.2
2019-03-13T03:20:50.578Z,4.3
2019-03-13T03:21:50.610Z,4.2
2019-03-13T03:22:50.698Z,4.2
2019-03-13T03:23:50.763Z,4.2
2019-03-13T03:24:50.835Z,4.2
2019-03-13T03:25:50.850Z,4.2
2019-03-13T03:26:50.933Z,4.2
2019-03-13T03:27:50.997Z,4.2
2019-03-13T03:28:51.081Z,4.2
2019-03-13T03:29:51.084Z,4.2
2019-03-13T03:30:51.179Z,4.2
2019-03-13T03:31:51.381Z,4.2
2019-03-13T03:32:51.225Z,4.2
2019-03-13T03:33:51.256Z,4.2
2019-03-13T03:34:51.335Z,4.2
2019-03-13T03:35:51.382Z,4.1
2019-03-13T03:36:51.409Z,4.1
2019-03-13T03:37:51.502Z,4.1
2019-03-13T03:38:51.588Z,4.1
2019-03-13T03:39:51.637Z,4.1
2019-03-13T03:40:51.660Z,4.1
2019-03-13T03:41:51.730Z,4.1
2019-03-13T03:42:52.553Z,4.1
2019-03-13T03:43:51.872Z,4.1
2019-03-13T03:44:51.880Z,4.1
2019-03-13T03:45:51.956Z,4.1
2019-03-13T03:46:51.991Z,4.1
2019-03-13T03:47:52.043Z,4.1
2019-03-13T03:48:52.151Z,4.1
2019-03-13T03:49:52.185Z,4.1
2019-03-13T03:50:52.230Z,4.1
2019-03-13T03:51:52.315Z,4.1
2019-03-13T03:52:52.371Z,4.1
2019-03-13T03:53:52.413Z,4.1
2019-03-13T03:54:52.486Z,4.1
2019-03-13T03:55:52.501Z,4.1
2019-03-13T03:56:52.560Z,4.1
2019-03-13T03:57:52.677Z,4.1
2019-03-13T03:59:25.615Z,4.1
2019-03-13T03:59:52.785Z,4.1
2019-03-13T04:00:52.801Z,4.1
2019-03-13T04:01:52.843Z,4.1
2019-03-13T04:02:52.893Z,4.1
2019-03-13T04:03:53.003Z,4.1
2019-03-13T04:04:53.053Z,4.1
2019-03-13T04:05:53.091Z,4.1
2019-03-13T04:06:53.121Z,4.1
2019-03-13T04:07:53.166Z,4.1
2019-03-13T04:08:53.211Z,4.1
2019-03-13T04:09:53.299Z,4.1
2019-03-13T04:10:53.339Z,4.1
2019-03-13T04:11:53.364Z,4.1
2019-03-13T04:12:53.646Z,4.1
2019-03-13T04:13:53.535Z,4.1
2019-03-13T04:14:53.540Z,4.1
2019-03-13T04:15:53.801Z,4.1
2019-03-13T04:16:53.696Z,4.1
2019-03-13T04:17:53.825Z,4.1
2019-03-13T04:18:53.846Z,4.1
2019-03-13T04:19:53.882Z,4.1
2019-03-13T04:20:53.914Z,4.1
2019-03-13T04:21:54.139Z,4.1
2019-03-13T04:22:54.068Z,4.1
2019-03-13T04:23:54.083Z,4.1
2019-03-13T04:24:54.159Z,4.1
2019-03-13T04:25:54.207Z,4.1
2019-03-13T04:26:54.432Z,4.1
2019-03-13T04:27:54.328Z,4.1
2019-03-13T04:28:54.461Z,4.1
2019-03-13T04:29:54.441Z,4.1
2019-03-13T04:30:54.560Z,4.1
2019-03-13T04:31:54.528Z,4.1
2019-03-13T04:32:54.591Z,4.1
2019-03-13T04:33:54.619Z,4.1
2019-03-13T04:34:54.740Z,4.1
2019-03-13T04:35:54.761Z,4.1
2019-03-13T04:36:54.810Z,4.1
2019-03-13T04:37:54.842Z,4.1
2019-03-13T04:38:54.934Z,4.1
2019-03-13T04:39:55.012Z,4.1
2019-03-13T04:40:55.046Z,4.1
2019-03-13T04:41:55.117Z,4.1
2019-03-13T04:42:55.153Z,4.1
2019-03-13T04:43:55.220Z,4.1
2019-03-13T04:44:55.371Z,4.1
2019-03-13T04:45:55.325Z,4.1
2019-03-13T04:46:55.376Z,4.2
2019-03-13T04:47:55.503Z,4.2
2019-03-13T04:48:55.529Z,4.2
2019-03-13T04:49:55.585Z,4.2
2019-03-13T04:50:55.643Z,4.2
2019-03-13T04:51:55.687Z,4.2
2019-03-13T04:52:55.770Z,4.2
2019-03-13T04:53:55.852Z,4.2
2019-03-13T04:54:55.849Z,4.2
2019-03-13T04:55:55.912Z,4.2
2019-03-13T04:56:55.978Z,4.2
2019-03-13T04:57:56.020Z,4.2
2019-03-13T04:58:56.054Z,4.2
2019-03-13T04:59:56.106Z,4.2
2019-03-13T05:00:56.177Z,4.2
2019-03-13T05:01:56.204Z,4.2
2019-03-13T05:02:56.285Z,4.2
2019-03-13T05:03:56.315Z,4.2
2019-03-13T05:04:56.395Z,4.2
2019-03-13T05:05:56.426Z,4.2
2019-03-13T05:06:56.507Z,4.2
2019-03-13T05:07:56.527Z,4.2
2019-03-13T05:08:56.559Z,4.2
2019-03-13T05:09:56.617Z,4.2
2019-03-13T05:10:56.784Z,4.2
2019-03-13T05:11:56.745Z,4.2
2019-03-13T05:12:56.896Z,4.1
2019-03-13T05:13:56.869Z,4.1
2019-03-13T05:14:56.921Z,4.1
2019-03-13T05:15:56.974Z,4.1
2019-03-13T05:16:57.037Z,4.1
2019-03-13T05:17:57.104Z,4.1
2019-03-13T05:18:57.147Z,4.1
2019-03-13T05:19:57.179Z,4.1
2019-03-13T05:20:57.236Z,4.1
2019-03-13T05:21:57.291Z,4.1
2019-03-13T05:22:57.438Z,4
2019-03-13T05:23:57.386Z,4
2019-03-13T05:24:57.468Z,4
2019-03-13T05:25:57.622Z,4
2019-03-13T05:26:57.607Z,4
2019-03-13T05:27:57.624Z,4
2019-03-13T05:28:57.778Z,4
2019-03-13T05:29:57.809Z,4
2019-03-13T05:30:57.764Z,4
2019-03-13T05:31:57.811Z,4
2019-03-13T05:32:57.873Z,3.9
2019-03-13T05:33:57.998Z,3.9
2019-03-13T05:34:58.237Z,3.9
2019-03-13T05:35:58.034Z,3.9
2019-03-13T05:36:58.243Z,3.9
2019-03-13T05:37:58.165Z,3.9
2019-03-13T05:38:58.237Z,3.9
2019-03-13T05:39:58.323Z,3.9
2019-03-13T05:40:58.397Z,3.9
2019-03-13T05:41:58.400Z,3.9
2019-03-13T05:42:59.014Z,3.9
2019-03-13T05:43:58.569Z,3.9
2019-03-13T05:44:59.312Z,3.9
2019-03-13T05:45:58.676Z,3.9
2019-03-13T05:46:58.899Z,3.9
2019-03-13T05:47:58.838Z,3.9
2019-03-13T05:48:58.919Z,3.9
2019-03-13T05:49:58.953Z,3.9
2019-03-13T05:50:58.858Z,3.9
2019-03-13T05:51:58.882Z,3.9
2019-03-13T05:52:58.959Z,3.9
2019-03-13T05:53:59.038Z,3.9
2019-03-13T05:54:59.928Z,3.9
2019-03-13T05:55:59.441Z,3.9
2019-03-13T05:57:02.929Z,3.9
2019-03-13T05:57:59.382Z,3.9
2019-03-13T05:58:59.526Z,3.9
2019-03-13T06:00:01.694Z,3.9
2019-03-13T06:00:59.598Z,3.9
2019-03-13T06:01:59.571Z,3.9
2019-03-13T06:02:59.594Z,3.9
2019-03-13T06:03:59.628Z,3.9
2019-03-13T06:04:59.667Z,3.9
2019-03-13T06:05:59.742Z,3.9
2019-03-13T06:06:59.922Z,3.9
2019-03-13T06:07:59.826Z,3.9
2019-03-13T06:08:59.886Z,3.9
2019-03-13T06:09:59.967Z,3.9
2019-03-13T06:11:00.389Z,3.9
2019-03-13T06:12:00.071Z,3.9
2019-03-13T06:13:00.084Z,3.9
2019-03-13T06:14:02.355Z,3.9
2019-03-13T06:15:03.398Z,3.9
2019-03-13T06:16:00.954Z,3.9
2019-03-13T06:17:00.603Z,3.9
2019-03-13T06:18:00.494Z,3.9
2019-03-13T06:19:00.525Z,3.9
2019-03-13T06:20:00.518Z,3.9
2019-03-13T06:21:00.611Z,3.9
2019-03-13T06:22:00.610Z,3.9
2019-03-13T06:23:00.638Z,3.9
2019-03-13T06:24:00.662Z,3.9
2019-03-13T06:25:00.703Z,4
2019-03-13T06:26:00.728Z,4
2019-03-13T06:27:00.833Z,4
2019-03-13T06:28:00.968Z,4
2019-03-13T06:29:00.907Z,4
2019-03-13T06:30:00.974Z,4
2019-03-13T06:31:01.006Z,4
2019-03-13T06:32:01.077Z,4.1
2019-03-13T06:33:01.141Z,4.1
2019-03-13T06:34:01.209Z,4.1
2019-03-13T06:35:01.271Z,4.1
2019-03-13T06:36:01.324Z,4.1
2019-03-13T06:37:01.463Z,4.1
2019-03-13T06:38:01.441Z,4.1
2019-03-13T06:39:01.596Z,4.1
2019-03-13T06:40:01.536Z,4.1
2019-03-13T06:41:01.628Z,4.1
2019-03-13T06:42:01.717Z,4.1
2019-03-13T06:43:01.975Z,4.1
2019-03-13T06:44:01.772Z,4.1
2019-03-13T06:45:01.765Z,4.1
2019-03-13T06:46:01.850Z,4.1
2019-03-13T06:47:01.924Z,4.1
2019-03-13T06:48:01.948Z,4.1
2019-03-13T06:49:02.045Z,4.1
2019-03-13T06:50:02.083Z,4.1
2019-03-13T06:51:02.090Z,4.1
2019-03-13T06:52:02.225Z,4.1
2019-03-13T06:53:02.249Z,4.1
2019-03-13T06:54:02.317Z,4.2
2019-03-13T06:55:02.348Z,4.2
2019-03-13T06:56:02.384Z,4.3
2019-03-13T06:57:02.521Z,4.3
2019-03-13T06:58:02.493Z,4.3
2019-03-13T06:59:13.312Z,4.3
2019-03-13T07:00:02.614Z,4.3
2019-03-13T07:01:02.727Z,4.3
2019-03-13T07:02:02.662Z,4.3
2019-03-13T07:03:02.742Z,4.3
2019-03-13T07:04:02.780Z,4.4
2019-03-13T07:05:02.846Z,4.4
2019-03-13T07:06:02.896Z,4.4
2019-03-13T07:07:02.959Z,4.4
2019-03-13T07:08:03.017Z,4.4
2019-03-13T07:09:03.024Z,4.4
2019-03-13T07:10:03.083Z,4.5
2019-03-13T07:11:03.174Z,4.5
2019-03-13T07:12:03.196Z,4.5
2019-03-13T07:13:03.233Z,4.5
2019-03-13T07:14:03.290Z,4.5
2019-03-13T07:15:03.355Z,4.5
2019-03-13T07:16:03.398Z,4.5
2019-03-13T07:17:03.535Z,4.5
2019-03-13T07:18:03.588Z,4.5
2019-03-13T07:19:03.558Z,4.5
2019-03-13T07:20:03.627Z,4.5
2019-03-13T07:21:03.677Z,4.5
2019-03-13T07:22:03.728Z,4.5
2019-03-13T07:23:03.748Z,4.5
2019-03-13T07:24:03.800Z,4.6
2019-03-13T07:25:03.920Z,4.6
2019-03-13T07:26:03.889Z,4.7
2019-03-13T07:27:03.923Z,4.8
2019-03-13T07:28:03.977Z,4.7
2019-03-13T07:29:11.817Z,4.7
2019-03-13T07:30:04.066Z,4.7
2019-03-13T07:31:04.131Z,4.7
2019-03-13T07:32:04.167Z,4.6
2019-03-13T07:33:04.204Z,4.6
2019-03-13T07:34:04.238Z,4.6
2019-03-13T07:35:04.298Z,4.6
2019-03-13T07:36:04.441Z,4.6
2019-03-13T07:37:04.394Z,4.7
2019-03-13T07:38:04.474Z,4.7
2019-03-13T07:39:04.539Z,4.7
2019-03-13T07:40:04.616Z,4.8
2019-03-13T07:41:04.657Z,4.8
2019-03-13T07:42:04.693Z,4.8
2019-03-13T07:43:04.731Z,4.8
2019-03-13T07:44:04.794Z,4.8
2019-03-13T07:45:04.840Z,4.8
2019-03-13T07:46:04.892Z,4.8
2019-03-13T07:47:04.952Z,4.8
2019-03-13T07:48:04.979Z,4.9
2019-03-13T07:49:05.039Z,4.9
2019-03-13T07:50:05.114Z,4.9
2019-03-13T07:51:05.170Z,4.9
2019-03-13T07:52:05.280Z,4.9
2019-03-13T07:53:05.291Z,4.9
2019-03-13T07:54:05.368Z,4.9
2019-03-13T07:55:05.389Z,5
2019-03-13T07:56:05.429Z,5
2019-03-13T07:57:05.473Z,5
2019-03-13T07:58:05.518Z,5.1
2019-03-13T07:59:05.584Z,5.1
2019-03-13T08:00:05.643Z,5.1
2019-03-13T08:01:05.732Z,5.1
2019-03-13T08:02:05.801Z,5.1
2019-03-13T08:03:05.779Z,5.1
2019-03-13T08:04:05.970Z,5.1
2019-03-13T08:05:06.039Z,5.1
2019-03-13T08:06:05.990Z,5.1
2019-03-13T08:07:06.075Z,5.1
2019-03-13T08:08:06.110Z,5.1
2019-03-13T08:09:06.149Z,5.1
2019-03-13T08:10:06.262Z,5.1
2019-03-13T08:11:06.296Z,5.1
2019-03-13T08:12:06.319Z,5.2
2019-03-13T08:13:06.373Z,5.2
2019-03-13T08:14:06.428Z,5.2
2019-03-13T08:15:06.527Z,5.2
2019-03-13T08:16:06.574Z,5.2
2019-03-13T08:17:06.575Z,5.2
2019-03-13T08:18:06.629Z,5.2
2019-03-13T08:19:06.688Z,5.2
2019-03-13T08:20:06.750Z,5.2
2019-03-13T08:21:06.788Z,5.3
2019-03-13T08:22:04.219Z,5.3
2019-03-13T08:22:25.475Z,5.3
2019-03-13T08:23:06.909Z,5.3
2019-03-13T08:24:06.933Z,5.3
2019-03-13T08:25:07.961Z,5.3
2019-03-13T08:26:07.179Z,5.3
2019-03-13T08:27:07.156Z,5.3
2019-03-13T08:28:07.158Z,5.3
2019-03-13T08:29:07.243Z,5.3
2019-03-13T08:30:07.313Z,5.3
2019-03-13T08:31:07.334Z,5.3
2019-03-13T08:32:07.427Z,5.3
2019-03-13T08:33:07.417Z,5.3
2019-03-13T08:34:07.474Z,5.3
2019-03-13T08:35:07.566Z,5.4
2019-03-13T08:36:07.557Z,5.4
2019-03-13T08:37:07.663Z,5.4
2019-03-13T08:38:07.704Z,5.4
2019-03-13T08:39:07.888Z,5.4
2019-03-13T08:40:07.969Z,5.4
2019-03-13T08:41:08.000Z,5.4
2019-03-13T08:42:07.959Z,5.4
2019-03-13T08:43:07.963Z,5.4
2019-03-13T08:44:08.017Z,5.4
2019-03-13T08:45:08.207Z,5.4
2019-03-13T08:46:08.258Z,5.4
2019-03-13T08:47:08.387Z,5.4
2019-03-13T08:48:08.353Z,5.4
2019-03-13T08:49:08.328Z,5.5
2019-03-13T08:50:08.360Z,5.5
2019-03-13T08:51:08.413Z,5.5
2019-03-13T08:52:08.596Z,5.6
2019-03-13T08:53:08.683Z,5.6
2019-03-13T08:54:08.698Z,5.6
2019-03-13T08:55:08.626Z,5.7
2019-03-13T08:56:08.658Z,5.7
2019-03-13T08:57:08.842Z,5.7
2019-03-13T08:58:08.905Z,5.7
2019-03-13T08:59:08.968Z,5.7
2019-03-13T09:00:09.016Z,5.7
2019-03-13T09:01:09.062Z,5.7
2019-03-13T09:02:08.953Z,5.7
2019-03-13T09:03:09.145Z,5.7
2019-03-13T09:04:09.142Z,5.7
2019-03-13T09:05:09.200Z,5.8
2019-03-13T09:06:09.237Z,5.8
2019-03-13T09:07:09.267Z,5.8
2019-03-13T09:08:09.333Z,5.8
2019-03-13T09:09:09.356Z,5.8
2019-03-13T09:10:09.404Z,5.8
2019-03-13T09:11:09.467Z,5.7
2019-03-13T09:12:09.693Z,5.7
2019-03-13T09:13:10.007Z,5.7
2019-03-13T09:14:10.976Z,5.7
2019-03-13T09:15:09.704Z,5.7
2019-03-13T09:16:09.878Z,5.8
2019-03-13T09:17:09.976Z,5.8
2019-03-13T09:18:10.376Z,5.8
2019-03-13T09:19:09.929Z,5.8
2019-03-13T09:20:10.025Z,5.9
2019-03-13T09:21:11.156Z,5.9
2019-03-13T09:22:10.381Z,5.9
2019-03-13T09:23:11.357Z,5.9
2019-03-13T09:24:10.285Z,5.9
2019-03-13T09:25:12.632Z,5.9
2019-03-13T09:26:10.270Z,5.9
2019-03-13T09:27:10.360Z,5.9
2019-03-13T09:28:11.782Z,5.9
2019-03-13T09:29:10.707Z,5.9
2019-03-13T09:30:10.667Z,5.9
2019-03-13T09:31:10.607Z,6
2019-03-13T09:32:10.592Z,6
2019-03-13T09:33:10.629Z,6
2019-03-13T09:34:10.733Z,6
2019-03-13T09:35:10.800Z,6.1
2019-03-13T09:36:10.858Z,6.1
2019-03-13T09:37:10.971Z,6.1
2019-03-13T09:38:11.069Z,6.1
2019-03-13T09:39:10.958Z,6.1
2019-03-13T09:40:10.997Z,6.1
2019-03-13T09:41:11.044Z,6.1
2019-03-13T09:42:11.099Z,6.1
2019-03-13T09:43:11.149Z,6.1
2019-03-13T09:44:11.213Z,6.2
2019-03-13T09:45:11.303Z,6.1
2019-03-13T09:46:11.319Z,6.1
2019-03-13T09:47:11.356Z,6.1
2019-03-13T09:48:11.416Z,6.1
2019-03-13T09:49:14.279Z,6.1
2019-03-13T09:50:11.539Z,6.2
2019-03-13T09:51:11.611Z,6.2
2019-03-13T09:52:11.762Z,6.2
2019-03-13T09:53:11.721Z,6.2
2019-03-13T09:54:11.818Z,6.2
2019-03-13T09:55:11.840Z,6.2
2019-03-13T09:56:11.868Z,6.2
2019-03-13T09:57:11.903Z,6.1
2019-03-13T09:58:11.988Z,6.1
2019-03-13T09:59:12.038Z,6.1
2019-03-13T10:00:12.036Z,6.1
2019-03-13T10:01:12.121Z,6.1
2019-03-13T10:02:12.149Z,6.1
2019-03-13T10:03:12.208Z,6.1
2019-03-13T10:04:12.249Z,6.1
2019-03-13T10:05:12.321Z,6.1
2019-03-13T10:06:12.358Z,6.2
2019-03-13T10:07:12.461Z,6.2
2019-03-13T10:08:12.490Z,6.2
2019-03-13T10:09:12.512Z,6.2
2019-03-13T10:10:12.564Z,6.2
2019-03-13T10:11:12.591Z,6.2
2019-03-13T10:12:12.663Z,6.2
2019-03-13T10:13:12.707Z,6.2
2019-03-13T10:14:12.732Z,6.2
2019-03-13T10:15:12.831Z,6.2
2019-03-13T10:16:12.867Z,6.2
2019-03-13T10:17:12.937Z,6.2
2019-03-13T10:18:12.992Z,6.2
2019-03-13T10:19:13.025Z,6.2
2019-03-13T10:20:13.074Z,6.2
2019-03-13T10:21:13.136Z,6.2
2019-03-13T10:22:13.222Z,6.2
2019-03-13T10:23:13.288Z,6.2
2019-03-13T10:24:13.362Z,6.3
2019-03-13T10:25:13.405Z,6.3
2019-03-13T10:26:13.445Z,6.3
2019-03-13T10:27:13.526Z,6.2
2019-03-13T10:28:13.577Z,6.2
2019-03-13T10:29:13.634Z,6.3
2019-03-13T10:30:13.676Z,6.3
2019-03-13T10:31:13.767Z,6.3
2019-03-13T10:32:13.836Z,6.3
2019-03-13T10:33:13.912Z,6.4
2019-03-13T10:34:13.936Z,6.5
2019-03-13T10:35:14.005Z,6.6
2019-03-13T10:36:14.065Z,6.7
2019-03-13T10:37:14.128Z,6.8
2019-03-13T10:38:14.526Z,6.8
2019-03-13T10:39:14.358Z,6.9
2019-03-13T10:40:14.344Z,6.9
2019-03-13T10:41:14.372Z,7
2019-03-13T10:42:14.442Z,7
2019-03-13T10:43:14.468Z,7.1
2019-03-13T10:44:14.545Z,7.2
2019-03-13T10:45:14.625Z,7.3
2019-03-13T10:46:14.634Z,7.3
2019-03-13T10:47:14.717Z,7.4
2019-03-13T10:48:14.741Z,7.5
2019-03-13T10:49:14.963Z,7.5
2019-03-13T10:50:14.817Z,7.5
2019-03-13T10:51:14.894Z,7.6
2019-03-13T10:52:14.940Z,7.6
2019-03-13T10:53:15.005Z,7.7
2019-03-13T10:54:15.036Z,7.9
2019-03-13T10:55:15.064Z,8
2019-03-13T10:56:15.452Z,8
2019-03-13T10:57:15.247Z,7.9
2019-03-13T10:58:15.302Z,7.8
2019-03-13T10:59:15.304Z,7.6
2019-03-13T11:00:15.367Z,7.5
2019-03-13T11:01:15.398Z,7.5
2019-03-13T11:02:15.474Z,7.4
2019-03-13T11:03:15.637Z,7.5
2019-03-13T11:04:15.583Z,7.5
2019-03-13T11:05:15.637Z,7.6
2019-03-13T11:06:15.687Z,7.6
2019-03-13T11:07:15.751Z,7.5
2019-03-13T11:08:15.809Z,7.5
2019-03-13T11:09:15.859Z,7.4
2019-03-13T11:10:15.875Z,7.3
2019-03-13T11:11:15.989Z,7.3
2019-03-13T11:12:16.028Z,7.3
2019-03-13T11:13:16.123Z,7.3
2019-03-13T11:14:16.275Z,7.3
2019-03-13T11:15:16.201Z,7.4
2019-03-13T11:16:16.251Z,7.4
2019-03-13T11:17:16.317Z,7.4
2019-03-13T11:18:18.064Z,7.4
2019-03-13T11:19:16.395Z,7.5
2019-03-13T11:20:16.459Z,7.5
2019-03-13T11:21:16.490Z,7.4
2019-03-13T11:22:16.584Z,7.4
2019-03-13T11:23:16.702Z,7.4
2019-03-13T11:24:16.664Z,7.4
2019-03-13T11:25:16.692Z,7.4
2019-03-13T11:26:16.761Z,7.4
2019-03-13T11:27:16.791Z,7.4
2019-03-13T11:28:16.839Z,7.4
2019-03-13T11:29:16.906Z,7.3
2019-03-13T11:30:17.041Z,7.3
2019-03-13T11:31:17.045Z,7.3
2019-03-13T11:32:17.093Z,7.3
2019-03-13T11:33:17.147Z,7.3
2019-03-13T11:34:17.219Z,7.3
2019-03-13T11:35:17.278Z,7.3
2019-03-13T11:36:17.308Z,7.3
2019-03-13T11:37:17.364Z,7.3
2019-03-13T11:38:17.426Z,7.3
2019-03-13T11:39:17.493Z,7.2
2019-03-13T11:40:17.633Z,7.2
2019-03-13T11:41:17.623Z,7.2
2019-03-13T11:42:17.717Z,7.2
2019-03-13T11:43:17.771Z,7.2
2019-03-13T11:44:17.866Z,7.2
2019-03-13T11:45:17.847Z,7.2
2019-03-13T11:46:17.964Z,7.2
2019-03-13T11:47:18.007Z,7.2
2019-03-13T11:48:18.047Z,7.2
2019-03-13T11:49:18.126Z,7.2
2019-03-13T11:50:18.174Z,7.2
2019-03-13T11:51:18.219Z,7.2
2019-03-13T11:52:18.285Z,7.2
2019-03-13T11:53:18.306Z,7.2
2019-03-13T11:54:18.357Z,7.3
2019-03-13T11:55:18.417Z,7.3
2019-03-13T11:56:18.448Z,7.3
2019-03-13T11:57:18.535Z,7.3
2019-03-13T11:58:18.552Z,7.3
2019-03-13T11:59:18.628Z,7.3
2019-03-13T12:00:18.700Z,7.3
2019-03-13T12:01:18.759Z,7.3
2019-03-13T12:02:18.789Z,7.4
2019-03-13T12:03:18.840Z,7.4
2019-03-13T12:04:18.884Z,7.4
2019-03-13T12:05:18.906Z,7.4
2019-03-13T12:06:18.947Z,7.4
2019-03-13T12:07:18.995Z,7.4
2019-03-13T12:08:19.027Z,7.4
2019-03-13T12:09:19.102Z,7.5
2019-03-13T12:10:19.160Z,7.5
2019-03-13T12:11:19.226Z,7.6
2019-03-13T12:12:19.279Z,7.6
2019-03-13T12:13:19.396Z,7.8
2019-03-13T12:14:19.389Z,7.9
2019-03-13T12:15:19.438Z,8
2019-03-13T12:16:19.558Z,8.1
2019-03-13T12:17:19.537Z,8.2
2019-03-13T12:18:19.557Z,8.3
2019-03-13T12:19:19.621Z,8.3
2019-03-13T12:20:19.664Z,8.3
2019-03-13T12:21:19.721Z,8.2
2019-03-13T12:22:19.833Z,8.1
2019-03-13T12:23:19.845Z,8.1
2019-03-13T12:24:19.909Z,8
2019-03-13T12:25:19.927Z,7.9
2019-03-13T12:26:20.186Z,7.9
2019-03-13T12:27:20.097Z,7.9
2019-03-13T12:28:20.043Z,7.9
2019-03-13T12:29:20.078Z,7.9
2019-03-13T12:30:20.136Z,7.9
2019-03-13T12:31:20.191Z,7.9
2019-03-13T12:32:20.259Z,7.9
2019-03-13T12:33:20.303Z,7.9
2019-03-13T12:34:20.354Z,8
2019-03-13T12:35:20.359Z,8
2019-03-13T12:36:20.452Z,8
2019-03-13T12:37:20.492Z,8
2019-03-13T12:38:20.547Z,7.9
2019-03-13T12:39:20.608Z,7.9
2019-03-13T12:40:20.734Z,7.9
2019-03-13T12:41:20.714Z,7.9
2019-03-13T12:42:20.818Z,7.9
2019-03-13T12:43:20.812Z,7.9
2019-03-13T12:44:20.848Z,7.9
2019-03-13T12:45:20.975Z,7.8
2019-03-13T12:46:20.979Z,7.8
2019-03-13T12:47:20.999Z,7.8
2019-03-13T12:48:21.090Z,7.8
2019-03-13T12:49:21.144Z,7.8
2019-03-13T12:50:21.219Z,7.8
2019-03-13T12:51:21.286Z,7.8
2019-03-13T12:52:21.328Z,7.8
2019-03-13T12:53:21.389Z,7.8
2019-03-13T12:54:21.485Z,7.7
2019-03-13T12:55:21.505Z,7.8
2019-03-13T12:56:21.572Z,7.8
2019-03-13T12:57:21.631Z,7.8
2019-03-13T12:58:21.696Z,7.8
2019-03-13T12:59:21.742Z,7.8
2019-03-13T13:00:21.805Z,7.8
2019-03-13T13:01:21.837Z,7.8
2019-03-13T13:02:21.945Z,7.8
2019-03-13T13:03:21.939Z,7.8
2019-03-13T13:04:22.012Z,7.8
2019-03-13T13:05:22.074Z,7.8
2019-03-13T13:06:22.111Z,7.8
2019-03-13T13:07:22.186Z,7.8
2019-03-13T13:08:22.204Z,7.8
2019-03-13T13:09:25.287Z,7.7
2019-03-13T13:10:22.273Z,7.7
2019-03-13T13:11:22.345Z,7.8
2019-03-13T13:12:22.455Z,7.8
2019-03-13T13:13:22.515Z,7.8
2019-03-13T13:14:22.557Z,7.8
2019-03-13T13:15:22.581Z,7.8
2019-03-13T13:16:22.668Z,7.8
2019-03-13T13:17:22.720Z,7.8
2019-03-13T13:18:22.751Z,7.8
2019-03-13T13:19:22.811Z,7.8
2019-03-13T13:20:24.134Z,7.8
2019-03-13T13:21:22.910Z,7.8
2019-03-13T13:22:22.914Z,7.8
2019-03-13T13:23:22.965Z,7.8
2019-03-13T13:24:23.011Z,7.8
2019-03-13T13:25:23.095Z,7.8
2019-03-13T13:26:23.149Z,7.8
2019-03-13T13:27:23.173Z,7.8
2019-03-13T13:28:23.275Z,7.8
2019-03-13T13:29:23.299Z,7.8
2019-03-13T13:30:23.324Z,7.8
2019-03-13T13:31:23.442Z,7.8
2019-03-13T13:32:23.487Z,7.8
2019-03-13T13:33:23.578Z,7.8
2019-03-13T13:34:23.607Z,7.8
2019-03-13T13:35:23.672Z,7.8
2019-03-13T13:36:26.553Z,7.8
2019-03-13T13:37:23.781Z,7.8
2019-03-13T13:38:23.809Z,7.8
2019-03-13T13:39:23.915Z,7.8
2019-03-13T13:40:23.929Z,7.8
2019-03-13T13:41:24.016Z,7.8
2019-03-13T13:42:24.050Z,7.8
2019-03-13T13:43:24.183Z,7.8
2019-03-13T13:44:24.175Z,7.8
2019-03-13T13:45:24.207Z,7.8
2019-03-13T13:46:24.485Z,7.8
2019-03-13T13:47:24.502Z,7.8
2019-03-13T13:48:24.386Z,7.7
2019-03-13T13:49:24.450Z,7.7
2019-03-13T13:50:24.952Z,7.7